KPIR/PIR METAR and TAF weather

Enter ICAO airport designator
Station Type Date Time Source
KPIR METAR 2019/08/21 21:53 UTC NOAA

KPIR 212153Z AUTO 14008KT 10SM CLR 26/12 A3007 RMK AO2 SLP172 T02560122


Station Type Date Time Source
KPIR Decoded METAR 2019/08/21 21:53 UTC NOAA

Station name not available
Aug 21, 2019 - 05:53 PM EDT / 2019.08.21 2153 UTC
Wind: from the SE (140 degrees) at 9 MPH (8 KT):0
Visibility: 10 mile(s):0
Sky conditions: clear
Temperature: 78.1 F (25.6 C)
Dew Point: 54.0 F (12.2 C)
Relative Humidity: 43%
Pressure (altimeter): 30.07 in. Hg (1018 hPa)
ob: KPIR 212153Z AUTO 14008KT 10SM CLR 26/12 A3007 RMK AO2 SLP172 T02560122
cycle: 22

Station Type Date Time Source
KPIR TAF 2019/08/21 18:27 UTC NOAA

TAF KPIR 211724Z 2118/2218 VRB05KT P6SM SKC
FM221500 14012G19KT P6SM SKC

Example: see airport list